Time;durP1;ratioP1;P1;durP2;ratioP2;P2;SDS_P1;SDS_P2;PMS_P1;PMS_P2;Temp;Humidity;BMP_temperature;BMP_pressure;BME280_temperature;BME280_humidity;BME280_pressure;Samples;Min_cycle;Max_cycle;Signal;HPM_P1;HPM_P2
2022/12/04 00:01:34;;;;;;;19.65;15.57;;;;;;;;;;5021751;28;20113;-78
2022/12/04 00:04:00;;;;;;;19.73;16.23;;;;;;;;;;4996132;28;20413;-80
2022/12/04 00:06:27;;;;;;;19.92;16.27;;;;;;;;;;5014077;28;20105;-81
2022/12/04 00:08:54;;;;;;;19.15;16.15;;;;;;;;;;5025880;28;20532;-78
2022/12/04 00:11:21;;;;;;;20.25;15.43;;;;;;;;;;5016504;28;20037;-80
2022/12/04 00:13:48;;;;;;;18.42;14.90;;;;;;;;;;5035935;28;20049;-79
2022/12/04 00:16:16;;;;;;;15.98;13.68;;;;;;;;;;5036063;28;20488;-79
2022/12/04 00:18:42;;;;;;;17.80;13.98;;;;;;;;;;5035919;28;20029;-78
2022/12/04 00:21:10;;;;;;;15.85;13.70;;;;;;;;;;5036015;28;20509;-79
2022/12/04 00:23:36;;;;;;;17.08;14.30;;;;;;;;;;5035813;28;20030;-79
2022/12/04 00:26:04;;;;;;;15.10;13.15;;;;;;;;;;5035753;28;20504;-78
2022/12/04 00:28:30;;;;;;;17.23;14.93;;;;;;;;;;5035733;28;20021;-78
2022/12/04 00:30:56;;;;;;;16.33;13.27;;;;;;;;;;5035685;28;20032;-81
2022/12/04 00:33:22;;;;;;;14.48;12.93;;;;;;;;;;5035737;28;20516;-80
2022/12/04 00:35:55;;;;;;;16.05;13.50;;;;;;;;;;5017584;28;20440;-79
2022/12/04 00:38:21;;;;;;;15.73;12.63;;;;;;;;;;5035742;28;20037;-79
2022/12/04 00:40:48;;;;;;;14.00;12.50;;;;;;;;;;5035440;28;20025;-80
2022/12/04 00:43:15;;;;;;;16.48;12.85;;;;;;;;;;5017795;28;20026;-79
2022/12/04 00:45:41;;;;;;;16.33;12.70;;;;;;;;;;5035303;28;20028;-79
2022/12/04 00:48:07;;;;;;;14.60;12.63;;;;;;;;;;5035519;28;20017;-79
2022/12/04 00:50:33;;;;;;;14.75;12.73;;;;;;;;;;5035372;28;20021;-80
2022/12/04 00:52:59;;;;;;;12.93;11.45;;;;;;;;;;5035242;28;20519;-79
2022/12/04 00:55:25;;;;;;;16.17;12.30;;;;;;;;;;5035353;28;20441;-81
2022/12/04 00:57:51;;;;;;;16.65;13.65;;;;;;;;;;5035070;28;20037;-79
2022/12/04 01:00:18;;;;;;;19.13;14.13;;;;;;;;;;5035245;28;20075;-80
2022/12/04 01:02:44;;;;;;;16.92;14.02;;;;;;;;;;5034959;28;20064;-79
2022/12/04 01:05:10;;;;;;;14.40;12.90;;;;;;;;;;5034994;28;20030;-80
2022/12/04 01:07:37;;;;;;;15.85;13.25;;;;;;;;;;5035044;28;20025;-79
2022/12/04 01:10:04;;;;;;;16.77;14.25;;;;;;;;;;5034782;28;20472;-79
2022/12/04 01:12:30;;;;;;;14.48;12.93;;;;;;;;;;5034915;28;20029;-80
2022/12/04 01:14:56;;;;;;;14.43;12.13;;;;;;;;;;5034829;28;20025;-79
2022/12/04 01:17:22;;;;;;;15.40;13.32;;;;;;;;;;5035027;28;20477;-79
2022/12/04 01:19:48;;;;;;;16.35;13.57;;;;;;;;;;5034811;28;20397;-80
2022/12/04 01:22:14;;;;;;;16.20;13.35;;;;;;;;;;5034172;28;20022;-79
2022/12/04 01:24:40;;;;;;;15.63;12.98;;;;;;;;;;5034694;28;20029;-81
2022/12/04 01:27:07;;;;;;;16.30;13.60;;;;;;;;;;5034521;28;20026;-79
2022/12/04 01:29:33;;;;;;;15.85;14.13;;;;;;;;;;5034580;28;20025;-80
2022/12/04 01:31:59;;;;;;;16.08;13.30;;;;;;;;;;5034642;28;20018;-80
2022/12/04 01:34:25;;;;;;;14.48;12.82;;;;;;;;;;5034596;28;20396;-80
2022/12/04 01:36:51;;;;;;;18.65;13.15;;;;;;;;;;5034751;28;20026;-81
2022/12/04 01:39:18;;;;;;;17.77;14.10;;;;;;;;;;5034407;28;20133;-80
2022/12/04 01:41:44;;;;;;;16.77;13.60;;;;;;;;;;5034442;28;20025;-81
2022/12/04 01:44:12;;;;;;;16.25;13.68;;;;;;;;;;5034344;28;20033;-81
2022/12/04 01:46:39;;;;;;;15.50;13.20;;;;;;;;;;5034339;28;20025;-81
2022/12/04 01:49:07;;;;;;;14.98;13.25;;;;;;;;;;5034158;28;20067;-80
2022/12/04 01:51:39;;;;;;;16.08;12.80;;;;;;;;;;5034392;28;20094;-80
2022/12/04 01:54:07;;;;;;;16.42;13.82;;;;;;;;;;5034163;28;20064;-80
2022/12/04 01:56:37;;;;;;;16.52;12.43;;;;;;;;;;5034210;28;20029;-79
2022/12/04 01:59:04;;;;;;;14.90;12.95;;;;;;;;;;5034089;28;20071;-81
2022/12/04 02:01:33;;;;;;;15.27;13.45;;;;;;;;;;5034165;28;20570;-80
2022/12/04 02:04:01;;;;;;;17.27;14.07;;;;;;;;;;5033714;28;20444;-79
2022/12/04 02:06:27;;;;;;;20.58;15.68;;;;;;;;;;5034055;28;20022;-79
2022/12/04 02:08:53;;;;;;;19.67;14.52;;;;;;;;;;5033835;28;20076;-80
2022/12/04 02:11:41;;;;;;;18.88;15.55;;;;;;;;;;5034043;28;20025;-79
2022/12/04 02:14:19;;;;;;;20.17;14.85;;;;;;;;;;5033841;28;20032;-80
2022/12/04 02:17:04;;;;;;;17.08;13.80;;;;;;;;;;5016014;28;20064;-80
2022/12/04 02:19:30;;;;;;;;;;;;;;;;;;5034179;28;20030;-80
2022/12/04 02:21:59;;;;;;;16.95;13.57;;;;;;;;;;5033749;28;20411;-80
2022/12/04 02:24:30;;;;;;;17.48;14.27;;;;;;;;;;5033364;28;20080;-80
2022/12/04 02:27:04;;;;;;;17.20;14.25;;;;;;;;;;5033725;28;20480;-80
2022/12/04 02:29:34;;;;;;;19.23;15.60;;;;;;;;;;5033544;28;20035;-79
2022/12/04 02:32:06;;;;;;;16.35;14.65;;;;;;;;;;5033506;28;20017;-79
2022/12/04 02:34:55;;;;;;;21.17;15.45;;;;;;;;;;5032712;28;20037;-79
2022/12/04 02:37:41;;;;;;;17.25;14.98;;;;;;;;;;5025526;28;20366;-79
2022/12/04 02:40:17;;;;;;;16.52;14.48;;;;;;;;;;5033169;28;20027;-81
2022/12/04 02:42:45;;;;;;;17.27;14.43;;;;;;;;;;5033349;28;20388;-79
2022/12/04 02:45:17;;;;;;;18.13;14.43;;;;;;;;;;5033010;28;20049;-80
2022/12/04 02:47:43;;;;;;;16.55;13.80;;;;;;;;;;5033201;28;21100;-80
2022/12/04 02:50:12;;;;;;;15.75;13.95;;;;;;;;;;5033227;28;20572;-81
2022/12/04 02:52:40;;;;;;;17.23;14.13;;;;;;;;;;5033175;28;20029;-81
2022/12/04 02:55:09;;;;;;;14.27;12.77;;;;;;;;;;5033035;28;20033;-81
2022/12/04 02:57:39;;;;;;;17.92;14.23;;;;;;;;;;5032912;28;20037;-79
2022/12/04 03:00:07;;;;;;;16.15;14.23;;;;;;;;;;5033040;28;20025;-80
2022/12/04 03:02:37;;;;;;;16.85;13.63;;;;;;;;;;5032810;28;20473;-79
2022/12/04 03:05:07;;;;;;;18.33;15.38;;;;;;;;;;5032704;28;20022;-79
2022/12/04 03:07:52;;;;;;;17.35;14.85;;;;;;;;;;5032888;28;20033;-79
2022/12/04 03:10:18;;;;;;;;;;;;;;;;;;5027218;28;20083;-80
2022/12/04 03:12:55;;;;;;;17.92;15.32;;;;;;;;;;5022932;28;19938;-80
2022/12/04 03:15:25;;;;;;;18.77;16.25;;;;;;;;;;5013092;28;20037;-79
2022/12/04 03:18:11;;;;;;;18.50;16.05;;;;;;;;;;5026528;28;20032;-79
2022/12/04 03:20:37;;;;;;;;;;;;;;;;;;5032776;28;20496;-81
2022/12/04 03:23:06;;;;;;;17.13;14.93;;;;;;;;;;5032607;28;19905;-79
2022/12/04 03:25:34;;;;;;;17.65;15.05;;;;;;;;;;5032366;28;20109;-81
2022/12/04 03:28:03;;;;;;;18.55;15.90;;;;;;;;;;5032658;28;20465;-79
2022/12/04 03:30:36;;;;;;;18.73;16.35;;;;;;;;;;5032371;28;20101;-80
2022/12/04 03:33:14;;;;;;;17.50;15.13;;;;;;;;;;5032559;28;20022;-81
2022/12/04 03:35:43;;;;;;;18.70;15.18;;;;;;;;;;5012984;28;20037;-80
2022/12/04 03:38:12;;;;;;;18.40;15.13;;;;;;;;;;5012681;28;20033;-81
2022/12/04 03:40:43;;;;;;;18.67;15.00;;;;;;;;;;5012801;28;20053;-81
2022/12/04 03:43:28;;;;;;;18.05;14.70;;;;;;;;;;5012506;28;20030;-81
2022/12/04 03:45:58;;;;;;;19.63;15.70;;;;;;;;;;5012179;28;20037;-79
2022/12/04 03:48:27;;;;;;;18.35;15.57;;;;;;;;;;5012989;28;20429;-79
2022/12/04 03:50:56;;;;;;;20.45;15.35;;;;;;;;;;5012495;28;20022;-81
2022/12/04 03:53:22;;;;;;;17.95;15.73;;;;;;;;;;5012740;28;20026;-79
2022/12/04 03:55:58;;;;;;;18.45;15.23;;;;;;;;;;5012406;28;20034;-80
2022/12/04 03:58:27;;;;;;;18.88;15.48;;;;;;;;;;5012492;28;20032;-81
2022/12/04 04:00:55;;;;;;;35.67;27.52;;;;;;;;;;5012434;28;20030;-80
2022/12/04 04:03:27;;;;;;;53.67;44.08;;;;;;;;;;5012354;28;20054;-80
2022/12/04 04:05:56;;;;;;;21.48;18.88;;;;;;;;;;5032168;28;20492;-80
2022/12/04 04:11:14;;;;;;;17.15;14.38;;;;;;;;;;5032444;28;20527;-80
2022/12/04 04:24:51;;;;;;;16.98;13.07;;;;;;;;;;5032009;28;20042;-79
2022/12/04 04:27:17;;;;;;;15.65;13.15;;;;;;;;;;5031744;28;20121;-81
2022/12/04 04:29:44;;;;;;;23.27;20.63;;;;;;;;;;5032073;28;20025;-79
2022/12/04 04:32:39;;;;;;;15.95;14.23;;;;;;;;;;5014163;28;20049;-81
2022/12/04 04:35:05;;;;;;;17.10;14.70;;;;;;;;;;5019152;28;20033;-80
2022/12/04 04:37:40;;;;;;;19.20;14.18;;;;;;;;;;5031871;28;20075;-81
2022/12/04 04:40:25;;;;;;;22.52;19.30;;;;;;;;;;5031904;28;20032;-80
2022/12/04 04:43:09;;;;;;;20.60;16.60;;;;;;;;;;5031842;28;20037;-81
2022/12/04 04:45:45;;;;;;;44.22;32.33;;;;;;;;;;5031887;28;21021;-81
2022/12/04 04:48:16;;;;;;;19.40;17.23;;;;;;;;;;5031490;28;20416;-81
2022/12/04 04:50:43;;;;;;;19.60;15.13;;;;;;;;;;5031633;28;20022;-81
2022/12/04 04:53:10;;;;;;;16.63;14.02;;;;;;;;;;5031649;28;20362;-80
2022/12/04 04:55:36;;;;;;;30.08;23.45;;;;;;;;;;5031899;28;20535;-79
2022/12/04 04:58:06;;;;;;;17.33;14.35;;;;;;;;;;5033488;28;20029;-79
2022/12/04 05:00:32;;;;;;;44.60;31.45;;;;;;;;;;5034705;28;20080;-81
2022/12/04 05:02:58;;;;;;;19.20;16.10;;;;;;;;;;5025161;28;20184;-80
2022/12/04 05:05:24;;;;;;;17.92;15.45;;;;;;;;;;5035107;28;20021;-81
2022/12/04 05:07:50;;;;;;;16.58;13.77;;;;;;;;;;5034235;28;20025;-79
2022/12/04 05:10:16;;;;;;;14.73;11.93;;;;;;;;;;4997256;28;20018;-81
2022/12/04 05:12:42;;;;;;;15.23;13.38;;;;;;;;;;5015424;28;20022;-80
2022/12/04 05:15:09;;;;;;;17.20;13.57;;;;;;;;;;5015042;28;20033;-79
2022/12/04 05:17:35;;;;;;;14.82;12.25;;;;;;;;;;5015347;28;20357;-79
2022/12/04 05:20:02;;;;;;;13.18;11.60;;;;;;;;;;5014876;28;20022;-79
2022/12/04 05:22:30;;;;;;;13.48;11.93;;;;;;;;;;5015143;28;20022;-79
2022/12/04 05:24:56;;;;;;;23.98;19.27;;;;;;;;;;5014816;28;20060;-79
2022/12/04 05:27:23;;;;;;;21.77;17.20;;;;;;;;;;5014871;28;20018;-79
2022/12/04 05:29:52;;;;;;;17.80;14.73;;;;;;;;;;5014817;28;20029;-80
2022/12/04 05:32:18;;;;;;;20.88;17.00;;;;;;;;;;5014743;28;20465;-79
2022/12/04 05:34:46;;;;;;;22.13;16.95;;;;;;;;;;5014936;28;20535;-80
2022/12/04 05:37:12;;;;;;;18.35;14.10;;;;;;;;;;5014560;28;20033;-79
2022/12/04 05:39:38;;;;;;;17.35;15.10;;;;;;;;;;5014712;28;20030;-79
2022/12/04 05:42:04;;;;;;;21.65;17.58;;;;;;;;;;5014455;28;20489;-79
2022/12/04 05:44:30;;;;;;;15.60;13.73;;;;;;;;;;5014692;28;20025;-79
2022/12/04 05:46:56;;;;;;;15.75;13.02;;;;;;;;;;5014528;28;20380;-80
2022/12/04 05:49:23;;;;;;;16.02;12.60;;;;;;;;;;5014388;28;20029;-79
2022/12/04 05:51:49;;;;;;;13.57;11.77;;;;;;;;;;5014667;28;20050;-79
2022/12/04 05:54:15;;;;;;;18.00;13.43;;;;;;;;;;5014190;28;20026;-79
2022/12/04 05:56:42;;;;;;;13.73;11.35;;;;;;;;;;5014478;28;20069;-80
2022/12/04 05:59:08;;;;;;;13.63;11.82;;;;;;;;;;5014146;28;20535;-80
2022/12/04 06:01:34;;;;;;;14.95;12.60;;;;;;;;;;5014420;28;20021;-80
2022/12/04 06:04:00;;;;;;;17.10;11.77;;;;;;;;;;5014112;28;20060;-79
2022/12/04 06:06:26;;;;;;;15.25;12.00;;;;;;;;;;5013982;28;20022;-79
2022/12/04 06:08:54;;;;;;;13.23;11.68;;;;;;;;;;5014082;28;20034;-79
2022/12/04 06:11:21;;;;;;;13.52;11.52;;;;;;;;;;5013935;28;20061;-80
2022/12/04 06:13:47;;;;;;;15.32;12.43;;;;;;;;;;5014147;28;20025;-79
2022/12/04 06:16:14;;;;;;;13.85;12.05;;;;;;;;;;5013803;28;20026;-79
2022/12/04 06:18:41;;;;;;;14.52;11.40;;;;;;;;;;5014143;28;20025;-79
2022/12/04 06:21:07;;;;;;;13.35;11.57;;;;;;;;;;4996240;28;20485;-80
2022/12/04 06:23:36;;;;;;;12.40;11.10;;;;;;;;;;5013767;28;20026;-80
2022/12/04 06:26:04;;;;;;;15.60;12.13;;;;;;;;;;5013689;28;20105;-80
2022/12/04 06:28:30;;;;;;;14.05;11.60;;;;;;;;;;5013736;28;20487;-80
2022/12/04 06:31:00;;;;;;;16.50;13.00;;;;;;;;;;5013743;28;20380;-79
2022/12/04 06:33:26;;;;;;;14.57;12.85;;;;;;;;;;5013505;28;20465;-82
2022/12/04 06:36:01;;;;;;;12.45;10.98;;;;;;;;;;5013703;28;20041;-81
2022/12/04 06:38:28;;;;;;;48.80;36.40;;;;;;;;;;4996028;28;20026;-80
2022/12/04 06:40:54;;;;;;;37.45;30.60;;;;;;;;;;5013593;28;20026;-79
2022/12/04 06:43:21;;;;;;;20.55;14.80;;;;;;;;;;5013191;28;20029;-79
2022/12/04 06:45:47;;;;;;;19.05;11.98;;;;;;;;;;5013541;28;20022;-80
2022/12/04 06:48:13;;;;;;;15.77;11.25;;;;;;;;;;5013244;28;20053;-79
2022/12/04 06:50:39;;;;;;;15.63;11.45;;;;;;;;;;5013445;28;20473;-79
2022/12/04 06:53:05;;;;;;;10.85;9.40;;;;;;;;;;5013207;28;20026;-80
2022/12/04 06:55:31;;;;;;;12.85;11.15;;;;;;;;;;5013580;28;20113;-80
2022/12/04 06:57:57;;;;;;;12.93;9.82;;;;;;;;;;5013449;28;20030;-81
2022/12/04 07:00:23;;;;;;;11.48;9.85;;;;;;;;;;5012970;28;20532;-80
2022/12/04 07:02:49;;;;;;;16.33;13.52;;;;;;;;;;5013259;28;20054;-80
2022/12/04 07:05:15;;;;;;;12.40;10.88;;;;;;;;;;5015712;28;20036;-80
2022/12/04 07:07:41;;;;;;;12.90;11.48;;;;;;;;;;5032850;28;20527;-79
2022/12/04 07:10:08;;;;;;;12.93;10.70;;;;;;;;;;5032820;28;20420;-79
2022/12/04 07:12:34;;;;;;;12.95;10.98;;;;;;;;;;5032731;28;20104;-79
2022/12/04 07:15:00;;;;;;;13.95;12.15;;;;;;;;;;5032623;28;20025;-80
2022/12/04 07:17:27;;;;;;;14.70;12.65;;;;;;;;;;5032436;28;20083;-80
2022/12/04 07:19:53;;;;;;;11.50;9.88;;;;;;;;;;5032339;28;20374;-80
2022/12/04 07:22:19;;;;;;;12.52;10.55;;;;;;;;;;5032356;28;20048;-79
2022/12/04 07:24:45;;;;;;;11.13;10.02;;;;;;;;;;5032650;28;20032;-79
2022/12/04 07:27:11;;;;;;;11.32;9.18;;;;;;;;;;5032606;28;20029;-79
2022/12/04 07:29:37;;;;;;;13.23;9.30;;;;;;;;;;5032375;28;20056;-79
2022/12/04 07:32:03;;;;;;;12.93;9.77;;;;;;;;;;5032574;28;20022;-79
2022/12/04 07:34:29;;;;;;;11.50;8.98;;;;;;;;;;5032413;28;20489;-79
2022/12/04 07:36:55;;;;;;;10.27;9.15;;;;;;;;;;5032493;28;20048;-79
2022/12/04 07:39:21;;;;;;;10.70;9.63;;;;;;;;;;5032272;28;20025;-79
2022/12/04 07:41:47;;;;;;;10.10;8.73;;;;;;;;;;5032561;28;20021;-79
2022/12/04 07:44:13;;;;;;;12.27;10.23;;;;;;;;;;5032333;28;20033;-78
2022/12/04 07:46:39;;;;;;;10.73;9.20;;;;;;;;;;5032207;28;20026;-80
2022/12/04 07:49:06;;;;;;;13.05;11.25;;;;;;;;;;5032441;28;20097;-79
2022/12/04 07:51:32;;;;;;;41.30;32.78;;;;;;;;;;5032058;28;20030;-80
2022/12/04 07:53:58;;;;;;;12.82;9.63;;;;;;;;;;5032377;28;20093;-80
2022/12/04 07:56:24;;;;;;;14.52;9.80;;;;;;;;;;5032341;28;20033;-80
2022/12/04 07:58:50;;;;;;;9.55;8.05;;;;;;;;;;5032169;28;20038;-79
2022/12/04 08:01:19;;;;;;;8.93;7.95;;;;;;;;;;5014523;28;20033;-79
2022/12/04 08:03:46;;;;;;;9.82;8.57;;;;;;;;;;5031948;28;20125;-80
2022/12/04 08:06:12;;;;;;;10.18;7.90;;;;;;;;;;5032075;28;20030;-80
2022/12/04 08:08:38;;;;;;;9.57;7.63;;;;;;;;;;5032013;28;20060;-79
2022/12/04 08:11:06;;;;;;;8.52;7.50;;;;;;;;;;5032179;28;20024;-79
2022/12/04 08:13:32;;;;;;;8.65;7.40;;;;;;;;;;5031928;28;20476;-80
2022/12/04 08:16:00;;;;;;;9.02;8.05;;;;;;;;;;5032172;28;20030;-78
2022/12/04 08:18:27;;;;;;;8.88;7.97;;;;;;;;;;5031851;28;20021;-79
2022/12/04 08:20:53;;;;;;;9.75;8.75;;;;;;;;;;5031948;28;20029;-80
2022/12/04 08:23:19;;;;;;;10.68;8.27;;;;;;;;;;5014230;28;20377;-79
2022/12/04 08:25:45;;;;;;;9.32;7.55;;;;;;;;;;5031755;28;20108;-79
2022/12/04 08:28:11;;;;;;;9.38;8.43;;;;;;;;;;5031857;28;20025;-79
2022/12/04 08:30:37;;;;;;;8.15;7.15;;;;;;;;;;5031797;28;20469;-80
2022/12/04 08:33:03;;;;;;;8.18;5.13;;;;;;;;;;5034671;28;20032;-78
2022/12/04 08:35:29;;;;;;;6.05;5.32;;;;;;;;;;5035716;28;20037;-79
2022/12/04 08:37:55;;;;;;;5.88;4.57;;;;;;;;;;5035605;28;20057;-79
2022/12/04 08:40:22;;;;;;;6.18;5.55;;;;;;;;;;5035683;28;20105;-81
2022/12/04 08:42:48;;;;;;;7.72;6.35;;;;;;;;;;5035403;28;20033;-79
2022/12/04 08:45:14;;;;;;;18.25;14.35;;;;;;;;;;5035458;28;20104;-79
2022/12/04 08:47:40;;;;;;;11.75;9.77;;;;;;;;;;5035431;28;20025;-79
2022/12/04 08:50:06;;;;;;;7.80;5.43;;;;;;;;;;5035433;28;20025;-80
2022/12/04 08:52:32;;;;;;;7.00;5.45;;;;;;;;;;5035323;28;20465;-79
2022/12/04 08:54:59;;;;;;;6.80;5.47;;;;;;;;;;5034954;28;20084;-80
2022/12/04 08:57:25;;;;;;;7.88;6.28;;;;;;;;;;5035143;28;20563;-78
2022/12/04 08:59:51;;;;;;;7.18;5.55;;;;;;;;;;5017203;28;20033;-79
2022/12/04 09:02:17;;;;;;;5.82;4.90;;;;;;;;;;5035010;28;20053;-78
2022/12/04 09:04:43;;;;;;;6.68;5.97;;;;;;;;;;5034957;28;20029;-79
2022/12/04 09:07:09;;;;;;;7.88;5.07;;;;;;;;;;5034919;28;20104;-79
2022/12/04 09:09:35;;;;;;;5.57;5.07;;;;;;;;;;5035047;28;20025;-78
2022/12/04 09:12:01;;;;;;;6.82;5.30;;;;;;;;;;5034842;28;20044;-79
2022/12/04 09:14:27;;;;;;;7.43;5.60;;;;;;;;;;5017316;28;20025;-79
2022/12/04 09:16:53;;;;;;;7.57;6.03;;;;;;;;;;5034651;28;20029;-79
2022/12/04 09:19:19;;;;;;;13.73;10.85;;;;;;;;;;5035034;28;20108;-79
2022/12/04 09:21:46;;;;;;;31.63;22.13;;;;;;;;;;5034854;28;20477;-79
2022/12/04 09:24:34;;;;;;;10.50;7.70;;;;;;;;;;5034781;28;20028;-80
2022/12/04 09:27:01;;;;;;;6.07;5.20;;;;;;;;;;5035021;28;20024;-80
2022/12/04 09:29:27;;;;;;;7.22;5.40;;;;;;;;;;5017052;28;20024;-80
2022/12/04 09:31:53;;;;;;;7.45;6.35;;;;;;;;;;5034821;28;20018;-78
2022/12/04 09:34:19;;;;;;;7.00;6.30;;;;;;;;;;5034593;28;20108;-81
2022/12/04 09:36:46;;;;;;;9.88;7.03;;;;;;;;;;5034615;28;20049;-81
2022/12/04 09:39:12;;;;;;;6.97;5.50;;;;;;;;;;5034477;28;20030;-82
2022/12/04 09:41:38;;;;;;;7.35;6.65;;;;;;;;;;5034524;28;20052;-81
2022/12/04 09:44:23;;;;;;;10.63;7.30;;;;;;;;;;5033937;28;20026;-81
2022/12/04 09:46:49;;;;;;;9.63;6.90;;;;;;;;;;5034257;28;20540;-79
2022/12/04 09:49:18;;;;;;;9.10;6.80;;;;;;;;;;5016600;28;20053;-78
2022/12/04 09:51:45;;;;;;;8.45;6.88;;;;;;;;;;5033926;28;20108;-78
2022/12/04 09:54:16;;;;;;;9.10;6.90;;;;;;;;;;5034226;28;20026;-81
2022/12/04 09:56:43;;;;;;;7.10;6.22;;;;;;;;;;5034072;28;20079;-79
2022/12/04 09:59:36;;;;;;;8.32;6.78;;;;;;;;;;5034294;28;20061;-79
2022/12/04 10:02:21;;;;;;;7.28;6.25;;;;;;;;;;5031018;28;20037;-79
2022/12/04 10:04:47;;;;;;;7.43;6.00;;;;;;;;;;5016203;28;20064;-80
2022/12/04 10:07:19;;;;;;;9.68;6.75;;;;;;;;;;5033879;28;20372;-80
2022/12/04 10:09:50;;;;;;;6.35;5.75;;;;;;;;;;5033817;28;20018;-79
2022/12/04 10:12:16;;;;;;;7.53;6.60;;;;;;;;;;5033890;28;20028;-79
2022/12/04 10:14:46;;;;;;;16.52;13.20;;;;;;;;;;5033810;28;20062;-79
2022/12/04 10:17:31;;;;;;;26.38;18.63;;;;;;;;;;5033827;28;20048;-79
2022/12/04 10:20:00;;;;;;;11.15;8.93;;;;;;;;;;5033846;28;20026;-78
2022/12/04 10:22:49;;;;;;;9.77;7.75;;;;;;;;;;5033557;28;20060;-79
2022/12/04 10:25:18;;;;;;;10.60;7.68;;;;;;;;;;5033236;28;20069;-80
2022/12/04 10:28:04;;;;;;;9.70;6.65;;;;;;;;;;5033460;28;20064;-78
2022/12/04 10:30:31;;;;;;;6.78;5.72;;;;;;;;;;5023237;28;20449;-79
2022/12/04 10:33:00;;;;;;;7.35;5.93;;;;;;;;;;5033234;28;20025;-79
2022/12/04 10:35:28;;;;;;;8.63;6.38;;;;;;;;;;5033510;28;20025;-79
2022/12/04 10:38:12;;;;;;;10.27;8.52;;;;;;;;;;5033139;28;20049;-78
2022/12/04 10:40:46;;;;;;;6.95;5.90;;;;;;;;;;5033079;28;20035;-79
2022/12/04 10:43:18;;;;;;;6.47;5.45;;;;;;;;;;5033334;28;20109;-79
2022/12/04 10:45:44;;;;;;;6.28;5.43;;;;;;;;;;5032865;28;20108;-79
2022/12/04 10:48:18;;;;;;;6.97;5.25;;;;;;;;;;5033345;28;20101;-79
2022/12/04 10:50:44;;;;;;;5.67;4.93;;;;;;;;;;5032910;28;20432;-79
2022/12/04 10:53:12;;;;;;;5.53;4.68;;;;;;;;;;5033067;28;20251;-79
2022/12/04 10:55:38;;;;;;;6.60;5.30;;;;;;;;;;5032050;28;20435;-80
2022/12/04 10:58:15;;;;;;;5.63;5.03;;;;;;;;;;5033137;28;20065;-79
2022/12/04 11:00:41;;;;;;;6.95;5.53;;;;;;;;;;5033051;28;20022;-79
2022/12/04 11:03:22;;;;;;;8.20;5.30;;;;;;;;;;5032808;28;20056;-79
2022/12/04 11:05:55;;;;;;;6.57;5.78;;;;;;;;;;5033051;28;20036;-81
2022/12/04 11:08:23;;;;;;;8.30;5.78;;;;;;;;;;5015211;28;20025;-81
2022/12/04 11:10:56;;;;;;;7.07;5.65;;;;;;;;;;5032928;28;20027;-81
2022/12/04 11:13:23;;;;;;;7.27;5.07;;;;;;;;;;5032837;28;20389;-82
2022/12/04 11:15:50;;;;;;;6.60;5.57;;;;;;;;;;5032872;28;20044;-81
2022/12/04 11:18:18;;;;;;;5.38;4.35;;;;;;;;;;5032675;28;20029;-81
2022/12/04 11:20:55;;;;;;;4.53;4.10;;;;;;;;;;5032759;28;20030;-80
2022/12/04 11:23:21;;;;;;;5.53;3.08;;;;;;;;;;5032646;28;20057;-79
2022/12/04 11:25:51;;;;;;;48.10;37.08;;;;;;;;;;5032365;28;20464;-80
2022/12/04 11:28:22;;;;;;;22.10;17.58;;;;;;;;;;5032696;28;20021;-78
2022/12/04 11:30:53;;;;;;;6.40;5.65;;;;;;;;;;5032365;28;20100;-80
2022/12/04 11:33:24;;;;;;;7.32;5.28;;;;;;;;;;5032675;28;20469;-79
2022/12/04 11:35:51;;;;;;;8.80;6.93;;;;;;;;;;5032353;28;20473;-78
2022/12/04 11:38:19;;;;;;;14.30;10.23;;;;;;;;;;5032526;28;20100;-78
2022/12/04 11:41:05;;;;;;;12.07;8.90;;;;;;;;;;5032049;28;20515;-79
2022/12/04 11:43:32;;;;;;;5.35;4.82;;;;;;;;;;5031923;28;20108;-78
2022/12/04 11:46:00;;;;;;;5.72;4.32;;;;;;;;;;5032178;28;20053;-79
2022/12/04 11:48:26;;;;;;;4.82;3.80;;;;;;;;;;5032011;28;20018;-78
2022/12/04 11:51:07;;;;;;;3.55;3.25;;;;;;;;;;5032280;28;20040;-79
2022/12/04 11:53:47;;;;;;;5.13;3.92;;;;;;;;;;5032195;28;20104;-79
2022/12/04 11:56:20;;;;;;;5.07;3.72;;;;;;;;;;5032028;28;20032;-79
2022/12/04 11:59:04;;;;;;;4.43;3.97;;;;;;;;;;5032174;28;20037;-80
2022/12/04 12:01:49;;;;;;;4.35;3.92;;;;;;;;;;5032137;28;20622;-79
2022/12/04 12:04:18;;;;;;;4.50;3.47;;;;;;;;;;5031828;28;20056;-79
2022/12/04 12:06:44;;;;;;;3.45;3.15;;;;;;;;;;5034607;28;20025;-78
2022/12/04 12:09:18;;;;;;;4.97;3.63;;;;;;;;;;5036111;28;20033;-79
2022/12/04 12:11:48;;;;;;;4.70;4.30;;;;;;;;;;5031473;28;20121;-78
2022/12/04 12:14:23;;;;;;;3.80;3.40;;;;;;;;;;5016131;28;20128;-78
2022/12/04 12:16:52;;;;;;;6.85;4.47;;;;;;;;;;5016098;28;20025;-80
2022/12/04 12:19:24;;;;;;;5.20;4.70;;;;;;;;;;5016038;28;20061;-80
2022/12/04 12:21:56;;;;;;;4.05;3.38;;;;;;;;;;5016230;28;20026;-78
2022/12/04 12:24:40;;;;;;;4.40;4.00;;;;;;;;;;5015943;28;20029;-79
2022/12/04 12:27:25;;;;;;;6.18;5.40;;;;;;;;;;5016190;28;20024;-79
2022/12/04 12:29:54;;;;;;;6.03;5.43;;;;;;;;;;5015892;28;20030;-79
2022/12/04 12:32:31;;;;;;;8.55;6.97;;;;;;;;;;5016075;28;20072;-80
2022/12/04 12:34:58;;;;;;;10.95;8.82;;;;;;;;;;5016054;28;20481;-78
2022/12/04 12:37:39;;;;;;;43.92;34.60;;;;;;;;;;5015701;28;20054;-80
2022/12/04 12:40:24;;;;;;;7.32;5.43;;;;;;;;;;5015863;28;20068;-79
2022/12/04 12:42:50;;;;;;;;;;;;;;;;;;5016153;28;20129;-78
2022/12/04 12:45:34;;;;;;;5.60;4.88;;;;;;;;;;5015587;28;20407;-78
2022/12/04 12:48:00;;;;;;;;;;;;;;;;;;5015936;28;20049;-79
2022/12/04 12:50:45;;;;;;;5.55;4.75;;;;;;;;;;5015849;28;19955;-78
2022/12/04 12:53:14;;;;;;;4.50;4.07;;;;;;;;;;5015702;28;20072;-79
2022/12/04 12:55:44;;;;;;;4.75;4.07;;;;;;;;;;5015155;28;20038;-79
2022/12/04 12:58:13;;;;;;;4.82;4.32;;;;;;;;;;5015542;28;20026;-78
2022/12/04 13:00:43;;;;;;;18.73;14.40;;;;;;;;;;5015032;28;20036;-79
2022/12/04 13:03:20;;;;;;;8.00;6.45;;;;;;;;;;5004873;28;20062;-79
2022/12/04 13:05:48;;;;;;;5.32;4.45;;;;;;;;;;4995660;28;20077;-79
2022/12/04 13:08:22;;;;;;;8.85;3.92;;;;;;;;;;4995557;28;20534;-79
2022/12/04 13:10:52;;;;;;;4.05;3.40;;;;;;;;;;4995598;28;20517;-79
2022/12/04 13:13:27;;;;;;;4.57;3.72;;;;;;;;;;4995428;28;20504;-78
2022/12/04 13:16:11;;;;;;;4.28;3.50;;;;;;;;;;4995491;28;20034;-78
2022/12/04 13:18:43;;;;;;;5.32;3.88;;;;;;;;;;4994312;28;20049;-80
2022/12/04 13:21:16;;;;;;;4.88;3.83;;;;;;;;;;4995588;28;20027;-79
2022/12/04 13:24:05;;;;;;;5.13;4.03;;;;;;;;;;4995191;28;20058;-80
2022/12/04 13:26:50;;;;;;;5.13;4.50;;;;;;;;;;4989674;28;20059;-78
2022/12/04 13:29:22;;;;;;;5.60;4.47;;;;;;;;;;4995090;28;20110;-79
2022/12/04 13:32:02;;;;;;;6.20;4.47;;;;;;;;;;4995283;28;20029;-78
2022/12/04 13:34:28;;;;;;;5.57;4.80;;;;;;;;;;4995391;28;20110;-79
2022/12/04 13:36:57;;;;;;;7.47;5.32;;;;;;;;;;4977434;28;20033;-78
2022/12/04 13:39:42;;;;;;;5.28;4.68;;;;;;;;;;4995048;28;20034;-78
2022/12/04 13:42:08;;;;;;;;;;;;;;;;;;4995442;28;20448;-79
2022/12/04 13:44:35;;;;;;;7.25;4.65;;;;;;;;;;4995043;28;19931;-80
2022/12/04 13:47:01;;;;;;;4.93;4.22;;;;;;;;;;4995027;28;20030;-79
2022/12/04 13:49:31;;;;;;;4.90;4.40;;;;;;;;;;4994990;28;20390;-79
2022/12/04 13:51:59;;;;;;;6.75;5.60;;;;;;;;;;4994670;28;20022;-79
2022/12/04 13:54:43;;;;;;;6.05;4.28;;;;;;;;;;4994867;28;20019;-79
2022/12/04 13:57:16;;;;;;;5.55;4.95;;;;;;;;;;4994910;28;20027;-79
2022/12/04 13:59:43;;;;;;;5.10;4.45;;;;;;;;;;4994817;28;20438;-78
2022/12/04 14:02:28;;;;;;;4.93;4.25;;;;;;;;;;4996741;28;20058;-78
2022/12/04 14:04:56;;;;;;;5.10;4.57;;;;;;;;;;5014241;28;20022;-79
2022/12/04 14:07:24;;;;;;;4.93;4.00;;;;;;;;;;5014283;28;20089;-80
2022/12/04 14:09:54;;;;;;;7.28;4.75;;;;;;;;;;5014131;28;20022;-79
2022/12/04 14:12:25;;;;;;;5.53;4.55;;;;;;;;;;5014110;28;20104;-79
2022/12/04 14:14:54;;;;;;;5.80;4.55;;;;;;;;;;5013815;28;20101;-78
2022/12/04 14:17:26;;;;;;;6.32;4.95;;;;;;;;;;5014019;28;20050;-79
2022/12/04 14:19:54;;;;;;;6.43;5.68;;;;;;;;;;5013785;28;20048;-80
2022/12/04 14:22:43;;;;;;;5.68;4.72;;;;;;;;;;5013975;28;20033;-79
2022/12/04 14:25:12;;;;;;;6.60;4.75;;;;;;;;;;5005967;28;20405;-79
2022/12/04 14:27:43;;;;;;;5.63;4.97;;;;;;;;;;5013766;28;20373;-80
2022/12/04 14:30:18;;;;;;;4.38;3.97;;;;;;;;;;5013940;28;20481;-79
2022/12/04 14:32:46;;;;;;;6.25;4.80;;;;;;;;;;5013893;28;20033;-80
2022/12/04 14:35:14;;;;;;;5.47;4.80;;;;;;;;;;5013776;28;20421;-79
2022/12/04 14:37:43;;;;;;;5.50;5.00;;;;;;;;;;5013608;28;20061;-79
2022/12/04 14:40:17;;;;;;;7.40;6.63;;;;;;;;;;5013788;28;20109;-79
2022/12/04 14:42:46;;;;;;;7.22;4.80;;;;;;;;;;5013597;28;20021;-79
2022/12/04 14:45:18;;;;;;;7.72;5.20;;;;;;;;;;4995618;28;20030;-79
2022/12/04 14:48:03;;;;;;;5.90;5.32;;;;;;;;;;5013525;28;20069;-79
2022/12/04 14:50:29;;;;;;;;;;;;;;;;;;5013971;28;20026;-78
2022/12/04 14:52:55;;;;;;;7.10;5.90;;;;;;;;;;5013247;28;19905;-79
2022/12/04 14:55:26;;;;;;;7.32;5.97;;;;;;;;;;5013312;28;20109;-78
2022/12/04 14:57:52;;;;;;;7.82;5.38;;;;;;;;;;5012897;28;20037;-79
2022/12/04 15:00:21;;;;;;;7.00;5.75;;;;;;;;;;5013314;28;20037;-79